Time;durP1;ratioP1;P1;durP2;ratioP2;P2;SDS_P1;SDS_P2;PMS_P1;PMS_P2;Temp;Humidity;BMP_temperature;BMP_pressure;BME280_temperature;BME280_humidity;BME280_pressure;Samples;Min_cycle;Max_cycle;Signal;HPM_P1;HPM_P2
2022/08/20 00:00:36;;;;;;;5.70;5.13;;;19.00;99.90;;;;;;4972115;28;20177;-91
2022/08/20 00:03:05;;;;;;;7.97;5.70;;;19.00;99.90;;;;;;4971877;28;20200;-92
2022/08/20 00:05:33;;;;;;;9.30;5.90;;;19.00;99.90;;;;;;4972175;28;20177;-91
2022/08/20 00:08:02;;;;;;;6.65;5.60;;;19.00;99.90;;;;;;4971776;28;20185;-92
2022/08/20 00:10:29;;;;;;;6.93;5.47;;;19.00;99.90;;;;;;4972215;28;20189;-91
2022/08/20 00:12:56;;;;;;;6.15;5.40;;;19.00;99.90;;;;;;4957279;28;20205;-93
2022/08/20 00:15:27;;;;;;;12.20;5.55;;;18.90;99.90;;;;;;4956352;28;20185;-90
2022/08/20 00:17:57;;;;;;;5.80;5.20;;;18.90;99.90;;;;;;4972186;28;20616;-90
2022/08/20 00:20:28;;;;;;;5.78;5.28;;;18.90;99.90;;;;;;4957147;28;20264;-90
2022/08/20 00:22:55;;;;;;;10.25;5.43;;;18.90;99.90;;;;;;4971942;28;20181;-90
2022/08/20 00:25:21;;;;;;;6.10;5.45;;;18.90;99.90;;;;;;4955798;28;20177;-90
2022/08/20 00:27:47;;;;;;;7.35;6.28;;;19.00;99.90;;;;;;4957135;29;20181;-90
2022/08/20 00:30:13;;;;;;;6.05;5.43;;;19.00;99.90;;;;;;4956345;28;20177;-90
2022/08/20 00:32:49;;;;;;;6.22;5.60;;;19.00;99.90;;;;;;4959898;29;20192;-91
2022/08/20 00:35:18;;;;;;;9.05;5.88;;;18.90;99.90;;;;;;4961007;29;20172;-92
2022/08/20 00:37:43;;;;;;;6.03;5.43;;;18.80;99.90;;;;;;4959627;29;20189;-93
2022/08/20 00:40:13;;;;;;;7.53;5.75;;;18.70;99.90;;;;;;4959751;28;20227;-94
2022/08/20 00:42:45;;;;;;;6.63;5.28;;;18.70;99.90;;;;;;4959532;28;20259;-92
2022/08/20 00:45:11;;;;;;;6.72;5.38;;;18.60;99.90;;;;;;4959787;29;20205;-92
2022/08/20 00:47:44;;;;;;;9.32;5.75;;;18.60;99.90;;;;;;4959955;29;20173;-92
2022/08/20 00:50:14;;;;;;;7.35;6.53;;;18.60;99.90;;;;;;4959715;29;20191;-91
2022/08/20 00:52:41;;;;;;;7.18;6.18;;;18.60;99.90;;;;;;4959461;29;20185;-92
2022/08/20 00:55:09;;;;;;;7.97;5.88;;;18.60;99.90;;;;;;4975565;28;20181;-92
2022/08/20 00:57:52;;;;;;;6.18;5.55;;;18.50;99.90;;;;;;4975099;28;20196;-90
2022/08/20 01:00:39;;;;;;;6.13;5.53;;;18.60;99.90;;;;;;4974804;28;20547;-88
2022/08/20 01:03:08;;;;;;;6.97;5.63;;;18.60;99.90;;;;;;4975283;28;20173;-89
2022/08/20 01:05:35;;;;;;;7.18;5.90;;;18.50;99.90;;;;;;4975617;28;20178;-89
2022/08/20 01:08:01;;;;;;;7.90;5.82;;;18.50;99.90;;;;;;4974971;28;20181;-89
2022/08/20 01:10:33;;;;;;;6.35;5.60;;;18.40;99.90;;;;;;4975011;28;20185;-91
2022/08/20 01:13:02;;;;;;;6.80;6.00;;;18.40;99.90;;;;;;4974879;28;20208;-93
2022/08/20 01:15:30;;;;;;;6.05;5.45;;;18.50;99.90;;;;;;4974859;28;20228;-94
2022/08/20 01:17:58;;;;;;;6.85;5.63;;;18.50;99.90;;;;;;4974862;28;20185;-90
2022/08/20 01:20:30;;;;;;;6.30;5.50;;;18.60;99.90;;;;;;4975252;28;20185;-93
2022/08/20 01:25:55;;;;;;;7.40;6.20;;;18.60;99.90;;;;;;4960557;29;20668;-92
2022/08/20 01:28:28;;;;;;;7.88;5.68;;;18.60;99.90;;;;;;4959005;29;20185;-92
2022/08/20 01:30:54;;;;;;;8.85;5.40;;;18.60;99.90;;;;;;4959069;29;20200;-92
2022/08/20 01:33:22;;;;;;;9.15;5.90;;;18.60;99.90;;;;;;4958968;28;20522;-91
2022/08/20 01:35:49;;;;;;;5.93;5.32;;;18.60;99.90;;;;;;4958742;28;20259;-91
2022/08/20 01:38:15;;;;;;;6.82;5.95;;;18.60;99.90;;;;;;4958434;29;20324;-91
2022/08/20 01:41:15;;;;;;;6.60;5.90;;;18.70;99.90;;;;;;4958844;29;20271;-90
2022/08/20 01:43:41;;;;;;;6.50;5.78;;;18.60;99.90;;;;;;4958676;28;20672;-91
2022/08/20 01:46:10;;;;;;;6.55;5.85;;;18.60;99.90;;;;;;4958720;28;20181;-92
2022/08/20 01:48:37;;;;;;;7.82;6.10;;;18.60;99.90;;;;;;4962771;29;20213;-89
2022/08/20 01:51:27;;;;;;;6.85;5.95;;;18.60;99.90;;;;;;4965604;28;20197;-90
2022/08/20 01:53:55;;;;;;;6.38;5.70;;;18.50;99.90;;;;;;4958718;29;20188;-92
2022/08/20 01:56:24;;;;;;;7.03;5.82;;;18.50;99.90;;;;;;4958609;29;20187;-91
2022/08/20 01:58:53;;;;;;;6.60;5.65;;;18.60;99.90;;;;;;4959662;28;20659;-91
2022/08/20 02:01:27;;;;;;;7.85;6.18;;;18.50;99.90;;;;;;4974551;28;20186;-91
2022/08/20 02:03:54;;;;;;;6.63;5.95;;;18.60;99.90;;;;;;4974483;28;20251;-90
2022/08/20 02:06:24;;;;;;;7.80;6.50;;;18.60;99.90;;;;;;4974455;28;20332;-90
2022/08/20 02:08:55;;;;;;;9.38;7.30;;;18.60;99.90;;;;;;4974364;28;20244;-91
2022/08/20 02:11:22;;;;;;;7.30;6.47;;;18.50;99.90;;;;;;5405445;23;20247;-85
2022/08/20 02:13:51;;;;;;;8.30;6.82;;;18.50;99.90;;;;;;4959136;28;20180;-87
2022/08/20 02:16:20;;;;;;;7.45;6.72;;;18.50;99.90;;;;;;4957031;28;20192;-86
2022/08/20 02:18:48;;;;;;;8.18;6.88;;;18.60;99.90;;;;;;4956996;28;20211;-87
2022/08/20 02:21:14;;;;;;;7.15;6.45;;;18.50;99.90;;;;;;4956895;28;20205;-86
2022/08/20 02:23:40;;;;;;;8.20;6.57;;;18.50;99.90;;;;;;4964852;28;20608;-87
2022/08/20 02:26:06;;;;;;;9.27;6.20;;;18.50;99.90;;;;;;4956878;28;20192;-86
2022/08/20 02:28:33;;;;;;;8.15;7.30;;;18.50;99.90;;;;;;4973596;28;20184;-86
2022/08/20 02:31:00;;;;;;;9.27;7.85;;;18.50;99.90;;;;;;4959171;28;20212;-85
2022/08/20 02:33:26;;;;;;;9.00;7.13;;;18.50;99.90;;;;;;4957150;28;20188;-86
2022/08/20 02:35:55;;;;;;;9.00;7.13;;;18.40;99.90;;;;;;4963295;28;20184;-86
2022/08/20 02:38:21;;;;;;;9.35;7.70;;;18.40;99.90;;;;;;4956580;28;20208;-86
2022/08/20 02:40:48;;;;;;;8.27;7.47;;;18.40;99.90;;;;;;4963140;28;20263;-86
2022/08/20 02:43:17;;;;;;;9.27;7.68;;;18.40;99.90;;;;;;4956597;28;20625;-86
2022/08/20 02:45:43;;;;;;;9.60;7.82;;;18.40;99.90;;;;;;4973418;28;20219;-86
2022/08/20 02:48:19;;;;;;;10.07;7.82;;;18.40;99.90;;;;;;4955039;28;20234;-86
2022/08/20 02:50:47;;;;;;;8.57;7.60;;;18.30;99.90;;;;;;4956362;28;20270;-86
2022/08/20 02:53:15;;;;;;;8.85;7.50;;;18.30;99.90;;;;;;4963099;28;20251;-86
2022/08/20 02:55:41;;;;;;;7.85;7.03;;;18.30;99.90;;;;;;4956258;28;20211;-87
2022/08/20 02:58:06;;;;;;;8.50;7.28;;;18.30;99.90;;;;;;4973029;28;20185;-86
2022/08/20 03:00:33;;;;;;;8.77;7.53;;;18.30;99.90;;;;;;4964343;28;20580;-86
2022/08/20 03:02:59;;;;;;;7.97;6.63;;;18.30;99.90;;;;;;4956416;28;20189;-86
2022/08/20 03:05:26;;;;;;;8.23;7.43;;;18.30;99.90;;;;;;4956069;28;20181;-86
2022/08/20 03:07:52;;;;;;;9.45;7.82;;;18.30;99.90;;;;;;4973764;28;20547;-87
2022/08/20 03:10:26;;;;;;;8.93;7.28;;;18.20;99.90;;;;;;4956045;28;20211;-85
2022/08/20 03:12:53;;;;;;;9.82;7.15;;;18.20;99.90;;;;;;4972286;28;20192;-86
2022/08/20 03:15:19;;;;;;;8.40;7.55;;;18.20;99.90;;;;;;4973521;28;20188;-86
2022/08/20 03:17:45;;;;;;;8.02;7.22;;;18.20;99.90;;;;;;4960538;28;20208;-86
2022/08/20 03:20:13;;;;;;;8.75;7.70;;;18.30;99.90;;;;;;4971890;28;20219;-86
2022/08/20 03:22:39;;;;;;;9.15;8.02;;;18.30;99.90;;;;;;4966663;28;20189;-86
2022/08/20 03:25:06;;;;;;;8.65;7.70;;;18.20;99.90;;;;;;4955655;28;20180;-86
2022/08/20 03:27:32;;;;;;;14.52;7.72;;;18.20;99.90;;;;;;4955865;28;20188;-86
2022/08/20 03:30:09;;;;;;;9.10;7.78;;;18.10;99.90;;;;;;4955581;28;20213;-86
2022/08/20 03:32:36;;;;;;;9.80;7.10;;;18.10;99.90;;;;;;4955544;28;20195;-86
2022/08/20 03:35:04;;;;;;;7.82;7.03;;;18.10;99.90;;;;;;4958451;28;20188;-86
2022/08/20 03:37:34;;;;;;;9.40;7.32;;;18.10;99.90;;;;;;4957455;28;20196;-86
2022/08/20 03:40:00;;;;;;;11.50;7.45;;;18.10;99.90;;;;;;4954879;28;20239;-86
2022/08/20 03:42:26;;;;;;;8.20;7.40;;;18.10;99.90;;;;;;4955627;28;20184;-86
2022/08/20 03:44:53;;;;;;;7.78;6.95;;;18.10;99.90;;;;;;4961936;28;20180;-85
2022/08/20 03:47:19;;;;;;;11.30;8.35;;;18.10;99.90;;;;;;4966645;28;20185;-86
2022/08/20 03:49:45;;;;;;;8.70;7.80;;;18.10;99.90;;;;;;4955079;28;20580;-86
2022/08/20 03:52:11;;;;;;;8.18;7.18;;;18.00;99.90;;;;;;4955539;28;20191;-86
2022/08/20 03:54:37;;;;;;;10.13;7.57;;;18.00;99.90;;;;;;4955063;28;20216;-86
2022/08/20 03:57:05;;;;;;;9.55;7.88;;;18.00;99.90;;;;;;4955256;28;20493;-86
2022/08/20 03:59:31;;;;;;;11.25;7.85;;;17.90;99.90;;;;;;4955187;28;20295;-86
2022/08/20 04:01:58;;;;;;;13.02;7.90;;;17.90;99.90;;;;;;4955147;28;20633;-86
2022/08/20 04:04:25;;;;;;;9.38;7.82;;;17.90;99.90;;;;;;4954183;28;20188;-85
2022/08/20 04:06:50;;;;;;;10.18;7.65;;;17.80;99.90;;;;;;4961919;28;20276;-86
2022/08/20 04:09:16;;;;;;;9.40;8.00;;;17.90;99.90;;;;;;4954924;28;20299;-86
2022/08/20 04:11:42;;;;;;;8.30;7.40;;;17.80;99.90;;;;;;4954865;28;20228;-87
2022/08/20 04:14:10;;;;;;;10.25;7.45;;;17.90;99.90;;;;;;4955428;28;20691;-86
2022/08/20 04:16:39;;;;;;;9.80;7.40;;;17.90;99.90;;;;;;4955178;28;20188;-86
2022/08/20 04:19:05;;;;;;;11.15;7.35;;;17.80;99.90;;;;;;4955275;28;20327;-86
2022/08/20 04:21:31;;;;;;;9.40;8.50;;;17.70;99.90;;;;;;4954801;28;20280;-86
2022/08/20 04:23:57;;;;;;;9.60;7.47;;;17.80;99.90;;;;;;4959863;28;20188;-86
2022/08/20 04:26:23;;;;;;;9.18;8.27;;;17.80;99.90;;;;;;4954408;28;20553;-86
2022/08/20 04:28:51;;;;;;;9.77;7.97;;;17.80;99.90;;;;;;4967092;28;20255;-86
2022/08/20 04:31:17;;;;;;;9.73;7.78;;;17.70;99.90;;;;;;4954591;28;20212;-86
2022/08/20 04:33:43;;;;;;;9.60;8.68;;;17.70;99.90;;;;;;4972114;28;20188;-86
2022/08/20 04:36:13;;;;;;;10.38;7.60;;;17.70;99.90;;;;;;4954608;28;20192;-86
2022/08/20 04:38:40;;;;;;;9.35;8.32;;;17.70;99.90;;;;;;4955119;28;20216;-86
2022/08/20 04:41:05;;;;;;;8.32;7.45;;;17.70;99.90;;;;;;4977237;28;20247;-86
2022/08/20 04:43:37;;;;;;;8.13;7.30;;;17.70;99.90;;;;;;4955552;28;20221;-86
2022/08/20 04:46:08;;;;;;;9.80;8.38;;;17.70;99.90;;;;;;4954734;28;20200;-85
2022/08/20 04:48:36;;;;;;;10.77;9.50;;;17.70;99.90;;;;;;4965831;28;20188;-86
2022/08/20 04:51:01;;;;;;;10.68;9.27;;;17.70;99.90;;;;;;4962232;28;20212;-86
2022/08/20 04:53:27;;;;;;;10.73;9.63;;;17.80;99.90;;;;;;4957250;28;20188;-86
2022/08/20 04:55:56;;;;;;;14.25;10.40;;;17.80;99.90;;;;;;4957638;28;20196;-86
2022/08/20 04:58:26;;;;;;;9.55;8.55;;;17.80;99.90;;;;;;4955100;28;20240;-86
2022/08/20 05:00:55;;;;;;;9.40;8.38;;;17.80;99.90;;;;;;4964247;28;20274;-86
2022/08/20 05:03:21;;;;;;;8.88;7.72;;;17.80;99.90;;;;;;4954612;28;20263;-86
2022/08/20 05:05:49;;;;;;;9.98;8.35;;;17.90;99.90;;;;;;4954645;28;20185;-86
2022/08/20 05:08:17;;;;;;;10.95;9.20;;;17.90;99.90;;;;;;4955208;28;20296;-86
2022/08/20 05:10:44;;;;;;;12.13;9.13;;;18.00;99.90;;;;;;4971925;28;20255;-86
2022/08/20 05:13:10;;;;;;;11.57;9.43;;;18.00;99.90;;;;;;4954534;28;20188;-86
2022/08/20 05:15:38;;;;;;;11.70;8.60;;;18.00;99.90;;;;;;4954679;28;20247;-86
2022/08/20 05:18:06;;;;;;;9.55;8.23;;;18.00;99.90;;;;;;4975625;28;20637;-86
2022/08/20 05:20:41;;;;;;;11.45;9.60;;;18.10;99.90;;;;;;4960801;28;20216;-86
2022/08/20 05:23:09;;;;;;;9.93;8.27;;;18.10;99.90;;;;;;4958953;28;20489;-86
2022/08/20 05:25:36;;;;;;;10.93;9.25;;;18.10;99.90;;;;;;4966845;28;20192;-86
2022/08/20 05:28:08;;;;;;;10.93;9.05;;;18.10;99.90;;;;;;4975240;28;20180;-85
2022/08/20 05:30:44;;;;;;;11.18;9.90;;;18.10;99.90;;;;;;4975279;28;20205;-86
2022/08/20 05:33:13;;;;;;;10.35;9.25;;;18.20;99.90;;;;;;4957906;28;20196;-86
2022/08/20 05:35:40;;;;;;;10.35;9.23;;;18.10;99.90;;;;;;4963876;28;20683;-86
2022/08/20 05:38:12;;;;;;;11.27;9.00;;;18.20;99.90;;;;;;4965379;28;20211;-87
2022/08/20 05:40:40;;;;;;;10.75;9.57;;;18.20;99.90;;;;;;4975358;28;20208;-87
2022/08/20 05:43:06;;;;;;;12.05;9.38;;;18.20;99.90;;;;;;4965542;28;20195;-87
2022/08/20 05:45:36;;;;;;;13.30;10.02;;;18.30;99.90;;;;;;4966623;28;20185;-86
2022/08/20 05:48:14;;;;;;;11.55;10.18;;;18.30;99.90;;;;;;4946251;28;20195;-86
2022/08/20 05:50:42;;;;;;;10.95;9.35;;;18.30;99.90;;;;;;4950650;28;20207;-87
2022/08/20 05:53:08;;;;;;;13.13;10.02;;;18.40;99.90;;;;;;4966065;28;20185;-87
2022/08/20 05:55:37;;;;;;;14.73;10.25;;;18.40;99.90;;;;;;4975437;28;20548;-87
2022/08/20 05:58:08;;;;;;;11.40;9.73;;;18.40;99.90;;;;;;4957683;28;20189;-86
2022/08/20 06:00:35;;;;;;;14.50;11.20;;;18.40;99.90;;;;;;4957426;28;20220;-87
2022/08/20 06:05:55;;;;;;;13.27;10.38;;;18.50;99.90;;;;;;4986148;28;20186;-86
2022/08/20 06:08:21;;;;;;;11.50;10.05;;;18.50;99.90;;;;;;4963524;28;20180;-86
2022/08/20 06:10:47;;;;;;;13.75;10.65;;;18.50;99.90;;;;;;4958118;28;20561;-86
2022/08/20 06:13:13;;;;;;;11.00;9.50;;;18.60;99.90;;;;;;4965357;28;20255;-86
2022/08/20 06:15:38;;;;;;;14.73;10.30;;;18.60;99.90;;;;;;4974308;28;20177;-86
2022/08/20 06:18:10;;;;;;;12.50;10.18;;;18.70;99.90;;;;;;4957226;28;20644;-87
2022/08/20 06:20:37;;;;;;;19.50;10.25;;;18.70;99.90;;;;;;4966441;28;20213;-86
2022/08/20 06:23:04;;;;;;;12.85;10.13;;;18.80;99.90;;;;;;4956752;28;20173;-87
2022/08/20 06:25:30;;;;;;;12.63;9.90;;;18.80;99.90;;;;;;4957180;28;20263;-86
2022/08/20 06:27:56;;;;;;;11.35;9.88;;;18.90;99.90;;;;;;4960791;28;20181;-87
2022/08/20 06:30:22;;;;;;;12.10;9.55;;;18.90;99.90;;;;;;4980923;28;20212;-86
2022/08/20 06:32:49;;;;;;;14.07;9.25;;;19.00;99.90;;;;;;4974467;28;20618;-86
2022/08/20 06:35:16;;;;;;;9.48;8.32;;;19.00;99.90;;;;;;4956958;28;20202;-87
2022/08/20 06:37:41;;;;;;;9.68;8.63;;;19.10;99.90;;;;;;4962699;28;20567;-86
2022/08/20 06:40:12;;;;;;;11.13;8.27;;;19.10;99.90;;;;;;4972364;28;20303;-87
2022/08/20 06:42:42;;;;;;;9.05;6.75;;;19.10;99.90;;;;;;4956575;28;20704;-86
2022/08/20 06:45:11;;;;;;;8.98;7.45;;;19.20;99.90;;;;;;4956615;28;20189;-87
2022/08/20 06:47:40;;;;;;;8.10;7.30;;;19.20;99.90;;;;;;4973709;28;20220;-87
2022/08/20 06:50:15;;;;;;;7.78;6.97;;;19.20;99.90;;;;;;4956617;28;20208;-87
2022/08/20 06:52:42;;;;;;;8.23;7.00;;;19.20;99.90;;;;;;4957170;28;20188;-87
2022/08/20 06:55:09;;;;;;;8.23;7.13;;;19.20;99.90;;;;;;4956260;28;20185;-87
2022/08/20 06:57:36;;;;;;;8.55;7.65;;;19.20;99.90;;;;;;4956408;28;20199;-87
2022/08/20 07:00:13;;;;;;;7.93;6.50;;;19.20;99.90;;;;;;4956217;28;20216;-86
2022/08/20 07:02:39;;;;;;;14.15;7.25;;;19.20;99.90;;;;;;4956274;28;20184;-86
2022/08/20 07:05:06;;;;;;;14.15;7.68;;;19.20;99.90;;;;;;4956521;28;20188;-87
2022/08/20 07:07:33;;;;;;;17.08;7.20;;;19.20;99.90;;;;;;4973707;28;20173;-88
2022/08/20 07:10:11;;;;;;;10.95;7.70;;;19.20;99.90;;;;;;4955867;28;20243;-87
2022/08/20 07:12:37;;;;;;;10.82;7.97;;;19.30;99.90;;;;;;4962133;28;20235;-87
2022/08/20 07:15:07;;;;;;;9.13;7.90;;;19.30;99.90;;;;;;4955693;28;20271;-85
2022/08/20 07:17:34;;;;;;;13.18;7.78;;;19.30;99.90;;;;;;4955411;28;20739;-85
2022/08/20 07:20:13;;;;;;;10.50;8.63;;;19.30;99.90;;;;;;4960857;28;20667;-86
2022/08/20 07:22:40;;;;;;;10.40;7.78;;;19.40;99.90;;;;;;4948882;28;20186;-88
2022/08/20 07:25:10;;;;;;;8.82;6.57;;;19.30;99.90;;;;;;4971814;28;20181;-87
2022/08/20 07:27:35;;;;;;;23.80;9.48;;;19.40;99.90;;;;;;4955671;28;20279;-87
2022/08/20 07:32:48;;;;;;;13.98;8.40;;;19.40;99.90;;;;;;4971496;28;20184;-89
2022/08/20 07:35:17;;;;;;;14.02;7.75;;;19.50;99.90;;;;;;4954020;28;20196;-88
2022/08/20 07:37:47;;;;;;;10.77;7.07;;;19.50;99.90;;;;;;4954821;28;20204;-88
2022/08/20 07:40:27;;;;;;;7.88;7.07;;;19.50;99.90;;;;;;4955692;28;20228;-87
2022/08/20 07:42:55;;;;;;;10.30;6.72;;;19.50;99.90;;;;;;4954334;28;20184;-87
2022/08/20 07:45:21;;;;;;;9.02;6.88;;;19.60;99.90;;;;;;4972274;28;20168;-88
2022/08/20 07:47:48;;;;;;;8.32;6.65;;;19.70;99.90;;;;;;4955199;28;20272;-87
2022/08/20 07:50:18;;;;;;;9.15;6.43;;;19.70;99.90;;;;;;4954836;28;20647;-87
2022/08/20 07:52:45;;;;;;;9.93;6.38;;;19.80;99.90;;;;;;4954164;28;20215;-88
2022/08/20 07:55:14;;;;;;;8.38;6.47;;;19.90;99.90;;;;;;4955002;28;20275;-88
2022/08/20 07:57:40;;;;;;;10.60;6.70;;;19.90;99.90;;;;;;4958501;28;20668;-87
2022/08/20 08:00:08;;;;;;;9.95;6.68;;;20.00;99.90;;;;;;4958320;28;20261;-87
2022/08/20 08:02:35;;;;;;;6.50;5.20;;;20.10;99.90;;;;;;4962851;28;20699;-87
2022/08/20 08:05:10;;;;;;;8.13;5.78;;;20.10;99.90;;;;;;4956378;28;20291;-89
2022/08/20 08:07:37;;;;;;;6.78;5.70;;;20.20;99.90;;;;;;4971171;28;20186;-88
2022/08/20 08:10:04;;;;;;;8.07;5.75;;;20.30;99.90;;;;;;4956972;28;20255;-88
2022/08/20 08:12:37;;;;;;;6.18;5.13;;;20.40;99.90;;;;;;4957999;28;20231;-87
2022/08/20 08:15:06;;;;;;;6.70;5.60;;;20.40;99.90;;;;;;4954750;28;20188;-88
2022/08/20 08:17:33;;;;;;;8.13;5.35;;;20.50;99.90;;;;;;4955103;28;20185;-88
2022/08/20 08:19:59;;;;;;;7.72;5.60;;;20.50;99.90;;;;;;4955127;28;20266;-87
2022/08/20 08:22:25;;;;;;;8.32;5.60;;;20.50;99.90;;;;;;4954773;28;20231;-88
2022/08/20 08:24:51;;;;;;;7.32;5.72;;;20.60;99.90;;;;;;4971849;28;20188;-88
2022/08/20 08:27:17;;;;;;;7.13;5.57;;;20.60;99.90;;;;;;4954529;28;20192;-88
2022/08/20 08:29:45;;;;;;;8.82;6.20;;;20.60;99.90;;;;;;4972080;28;20209;-88
2022/08/20 08:32:11;;;;;;;7.18;5.53;;;20.60;99.90;;;;;;4963019;28;20649;-88
2022/08/20 08:34:37;;;;;;;6.28;5.10;;;20.60;99.90;;;;;;4972956;28;20227;-89
2022/08/20 08:37:04;;;;;;;6.05;5.45;;;20.60;99.90;;;;;;4955840;28;20209;-89
2022/08/20 08:39:31;;;;;;;7.60;5.68;;;20.60;99.90;;;;;;4953831;28;20256;-90
2022/08/20 08:41:59;;;;;;;6.00;4.88;;;20.50;99.90;;;;;;4972867;28;20637;-89
2022/08/20 08:44:29;;;;;;;5.90;4.72;;;20.50;99.90;;;;;;4961223;28;20699;-89
2022/08/20 08:47:12;;;;;;;5.45;4.60;;;20.50;99.90;;;;;;4955749;28;20197;-89
2022/08/20 09:05:58;;;;;;;4.57;3.55;;;20.70;99.90;;;;;;3953335;28;20203;-88
2022/08/20 09:08:52;;;;;;;9.90;4.97;;;20.70;99.90;;;;;;5006140;28;20191;-88
2022/08/20 09:11:22;;;;;;;6.28;3.95;;;20.70;99.90;;;;;;4997349;28;20214;-88
2022/08/20 09:13:48;;;;;;;4.82;4.30;;;20.70;99.90;;;;;;5011197;28;20712;-89
2022/08/20 09:16:15;;;;;;;7.25;4.35;;;20.70;99.90;;;;;;5004763;28;20201;-87
2022/08/20 09:18:40;;;;;;;5.45;3.78;;;20.80;99.90;;;;;;4999785;28;20202;-87
2022/08/20 09:21:08;;;;;;;5.88;4.30;;;20.90;99.90;;;;;;5015530;28;20202;-88
2022/08/20 09:23:37;;;;;;;9.20;4.65;;;21.00;99.90;;;;;;5008860;28;20711;-89
2022/08/20 09:26:03;;;;;;;6.55;5.13;;;21.00;99.90;;;;;;4997680;28;20604;-89
2022/08/20 09:28:29;;;;;;;7.13;5.15;;;21.10;99.90;;;;;;4996870;28;20620;-88
2022/08/20 09:30:55;;;;;;;5.50;4.55;;;21.20;99.90;;;;;;5007537;28;20211;-88
2022/08/20 09:33:21;;;;;;;7.43;4.88;;;21.30;99.90;;;;;;5014602;28;20193;-89
2022/08/20 09:35:46;;;;;;;7.07;4.95;;;21.40;99.90;;;;;;4996643;28;20191;-88
2022/08/20 09:38:18;;;;;;;6.22;4.43;;;21.50;99.90;;;;;;5004230;28;20194;-88
2022/08/20 09:40:56;;;;;;;5.60;4.28;;;21.60;99.90;;;;;;5023012;28;20226;-88
2022/08/20 09:43:21;;;;;;;5.90;3.67;;;21.80;99.90;;;;;;5004555;28;20178;-87
2022/08/20 09:45:47;;;;;;;6.15;3.83;;;21.90;99.90;;;;;;5000553;28;20764;-88
2022/08/20 09:48:13;;;;;;;4.47;3.92;;;22.00;99.90;;;;;;4996965;28;20248;-88
2022/08/20 09:50:45;;;;;;;6.72;4.18;;;22.00;99.90;;;;;;5004462;28;20207;-88
2022/08/20 09:53:12;;;;;;;6.05;3.67;;;22.10;99.90;;;;;;5002307;28;20316;-89
2022/08/20 09:55:44;;;;;;;4.78;3.85;;;22.20;99.90;;;;;;5001161;28;20187;-89
2022/08/20 09:58:50;;;;;;;4.18;3.10;;;22.30;99.90;;;;;;5007551;28;20190;-88
2022/08/20 10:01:19;;;;;;;5.05;3.70;;;22.40;99.90;;;;;;4983928;28;20736;-88
2022/08/20 10:03:47;;;;;;;6.07;3.50;;;22.50;99.90;;;;;;5021981;28;20266;-89
2022/08/20 10:06:15;;;;;;;6.90;3.47;;;22.50;99.90;;;;;;4995508;28;20246;-88
2022/08/20 10:08:42;;;;;;;3.90;3.35;;;22.50;99.90;;;;;;5011507;28;20183;-88
2022/08/20 10:11:08;;;;;;;4.75;3.47;;;22.50;99.90;;;;;;5000073;28;20636;-87
2022/08/20 10:13:34;;;;;;;4.18;3.40;;;22.40;99.90;;;;;;4999960;28;20281;-88
2022/08/20 10:16:00;;;;;;;4.97;2.83;;;22.30;99.90;;;;;;5001381;28;20552;-87
2022/08/20 10:18:28;;;;;;;3.55;3.00;;;22.30;99.90;;;;;;4995962;28;20677;-88
2022/08/20 10:20:54;;;;;;;5.25;3.40;;;22.20;99.90;;;;;;4995412;28;20234;-88
2022/08/20 10:23:20;;;;;;;4.05;2.90;;;22.10;99.90;;;;;;5002321;28;20260;-87
2022/08/20 10:25:46;;;;;;;6.72;3.78;;;22.00;99.90;;;;;;5031722;28;20693;-87
2022/08/20 10:28:12;;;;;;;5.15;3.47;;;21.90;99.90;;;;;;5013293;28;20186;-88
2022/08/20 10:30:38;;;;;;;5.43;3.97;;;21.80;99.90;;;;;;4999116;28;20210;-87
2022/08/20 10:33:03;;;;;;;5.57;3.38;;;21.80;99.90;;;;;;5001996;28;20203;-87
2022/08/20 10:35:29;;;;;;;5.07;3.53;;;21.80;99.90;;;;;;5007778;28;20237;-88
2022/08/20 10:37:55;;;;;;;6.32;3.80;;;21.80;99.90;;;;;;4995648;28;20282;-88
2022/08/20 10:40:21;;;;;;;4.55;3.42;;;21.80;99.90;;;;;;5002762;28;20231;-88
2022/08/20 10:42:47;;;;;;;4.75;2.97;;;21.80;99.90;;;;;;5004040;28;20178;-88
2022/08/20 10:45:14;;;;;;;5.50;3.80;;;21.90;99.90;;;;;;5032419;28;20550;-88
2022/08/20 10:47:40;;;;;;;5.93;3.80;;;22.00;99.90;;;;;;5015101;28;20236;-87
2022/08/20 10:50:10;;;;;;;4.57;3.42;;;22.10;99.90;;;;;;5004662;28;20214;-89
2022/08/20 10:52:36;;;;;;;5.43;3.30;;;22.20;99.90;;;;;;5018087;28;20262;-88
2022/08/20 10:55:03;;;;;;;5.20;3.40;;;22.30;99.90;;;;;;5006262;28;20187;-87
2022/08/20 10:57:32;;;;;;;7.25;3.85;;;22.40;99.90;;;;;;5004466;28;20187;-88
2022/08/20 10:59:58;;;;;;;4.75;3.47;;;22.50;99.90;;;;;;5005690;28;20222;-88
2022/08/20 11:02:25;;;;;;;5.57;3.55;;;22.50;99.90;;;;;;5009748;28;20654;-89
2022/08/20 11:04:52;;;;;;;4.40;3.95;;;22.60;99.90;;;;;;4997780;28;20253;-87
2022/08/20 11:07:30;;;;;;;5.57;3.67;;;22.60;99.90;;;;;;5000823;28;20230;-88
2022/08/20 11:09:56;;;;;;;6.03;4.53;;;22.70;99.90;;;;;;4992794;28;20195;-89
2022/08/20 11:12:22;;;;;;;4.93;3.80;;;22.70;99.90;;;;;;4998413;28;20563;-88
2022/08/20 11:14:50;;;;;;;6.53;3.60;;;22.80;99.90;;;;;;4993050;28;20215;-88
2022/08/20 11:17:23;;;;;;;6.53;4.05;;;22.80;99.90;;;;;;5002338;28;20191;-89
2022/08/20 11:19:49;;;;;;;6.15;3.70;;;22.80;99.90;;;;;;4997390;28;20772;-87
2022/08/20 11:22:17;;;;;;;5.03;3.92;;;22.80;99.90;;;;;;5012270;28;20696;-88
2022/08/20 11:24:42;;;;;;;6.63;3.80;;;23.00;99.90;;;;;;4998299;28;20183;-87
2022/08/20 11:27:09;;;;;;;5.43;4.63;;;23.10;99.90;;;;;;5015609;28;20182;-88
2022/08/20 11:29:36;;;;;;;6.15;4.97;;;23.10;99.90;;;;;;5021185;28;20210;-87
2022/08/20 11:32:04;;;;;;;6.13;5.05;;;23.20;99.90;;;;;;5006133;28;20189;-88
2022/08/20 11:34:30;;;;;;;6.80;5.38;;;23.20;99.90;;;;;;4995442;28;20661;-88
2022/08/20 11:37:02;;;;;;;7.10;5.68;;;23.40;99.90;;;;;;5002643;28;20277;-88
2022/08/20 11:39:28;;;;;;;6.70;5.65;;;23.50;99.90;;;;;;5005176;28;20238;-86
2022/08/20 11:41:54;;;;;;;7.93;5.35;;;23.40;99.90;;;;;;5011944;28;20240;-88
2022/08/20 11:44:24;;;;;;;7.82;6.05;;;23.40;99.90;;;;;;5005060;28;20278;-89
2022/08/20 11:46:51;;;;;;;8.07;6.45;;;23.40;99.90;;;;;;5006089;28;20193;-89
2022/08/20 11:49:16;;;;;;;9.02;5.25;;;23.30;99.90;;;;;;5004831;28;20202;-88
2022/08/20 11:51:42;;;;;;;5.85;4.93;;;23.20;99.90;;;;;;4993661;28;20209;-88
2022/08/20 11:54:09;;;;;;;7.35;5.60;;;23.20;99.90;;;;;;4991689;28;20235;-89
2022/08/20 11:56:35;;;;;;;5.88;4.60;;;23.10;99.90;;;;;;4992613;28;20198;-89
2022/08/20 11:59:01;;;;;;;6.38;5.18;;;23.10;99.90;;;;;;5000248;28;20202;-88
2022/08/20 12:01:27;;;;;;;6.32;5.68;;;23.10;99.90;;;;;;5009342;28;20175;-88
2022/08/20 12:03:54;;;;;;;7.63;6.32;;;23.00;99.90;;;;;;4987925;28;20179;-89
2022/08/20 12:06:20;;;;;;;11.15;6.72;;;23.00;99.90;;;;;;4978477;28;20226;-89
2022/08/20 12:08:46;;;;;;;6.13;5.50;;;23.00;99.90;;;;;;4992106;28;20168;-87
2022/08/20 12:11:12;;;;;;;6.80;5.80;;;23.00;99.90;;;;;;4991249;28;20253;-88
2022/08/20 12:13:38;;;;;;;6.40;5.07;;;23.00;99.90;;;;;;4990916;28;20175;-88
2022/08/20 12:16:04;;;;;;;5.95;4.90;;;23.10;99.90;;;;;;4990960;28;20254;-88
2022/08/20 12:18:36;;;;;;;6.38;4.78;;;23.20;99.90;;;;;;4990519;28;20643;-89
2022/08/20 12:21:01;;;;;;;7.43;5.32;;;23.30;99.90;;;;;;4990136;28;20198;-88
2022/08/20 12:23:29;;;;;;;6.43;5.05;;;23.40;99.90;;;;;;5003587;28;20195;-90
2022/08/20 12:25:54;;;;;;;5.97;4.90;;;23.40;99.90;;;;;;5009589;28;20217;-89
2022/08/20 12:28:23;;;;;;;6.55;4.90;;;23.50;99.90;;;;;;5010517;28;20167;-89
2022/08/20 12:30:50;;;;;;;5.82;4.88;;;23.60;99.90;;;;;;4991698;28;20234;-89
2022/08/20 12:33:16;;;;;;;6.60;5.50;;;23.70;99.90;;;;;;4990468;28;20179;-88
2022/08/20 12:35:42;;;;;;;6.75;4.70;;;23.80;99.90;;;;;;4990424;28;20187;-89
2022/08/20 12:38:08;;;;;;;9.07;5.55;;;23.90;99.90;;;;;;4972173;28;20637;-89
2022/08/20 12:40:34;;;;;;;5.13;4.53;;;23.90;99.90;;;;;;4970915;28;20715;-89
2022/08/20 12:43:01;;;;;;;5.35;4.80;;;24.00;99.90;;;;;;4971145;28;20263;-88
2022/08/20 12:45:28;;;;;;;7.25;4.10;;;24.00;99.90;;;;;;4980218;28;20180;-87
2022/08/20 12:48:09;;;;;;;4.43;3.67;;;24.00;99.90;;;;;;4971234;28;20556;-88
2022/08/20 12:50:37;;;;;;;4.35;3.70;;;23.90;99.90;;;;;;4971905;28;20214;-90
2022/08/20 12:53:05;;;;;;;3.55;3.20;;;23.80;99.90;;;;;;4998015;28;20197;-89
2022/08/20 12:55:31;;;;;;;2.22;2.00;;;23.80;99.90;;;;;;5009956;28;20171;-88
2022/08/20 12:58:00;;;;;;;1.42;0.80;;;23.60;99.90;;;;;;5009833;28;20662;-88
2022/08/20 13:00:34;;;;;;;0.73;0.60;;;23.30;99.90;;;;;;5009442;28;20219;-89
2022/08/20 13:03:03;;;;;;;0.93;0.70;;;23.00;99.90;;;;;;5009420;28;20228;-88
2022/08/20 13:05:30;;;;;;;1.67;0.90;;;22.80;99.90;;;;;;5009811;28;20170;-89
2022/08/20 13:07:57;;;;;;;1.35;0.82;;;22.60;99.90;;;;;;5009951;28;20313;-89
2022/08/20 13:10:36;;;;;;;1.30;0.73;;;22.50;99.90;;;;;;4982756;28;20205;-88
2022/08/20 13:13:02;;;;;;;3.63;0.70;;;22.40;99.90;;;;;;4971001;28;20648;-87
2022/08/20 13:15:30;;;;;;;0.60;0.50;;;22.20;99.90;;;;;;4970849;28;20173;-88